Springfield Branson National Airport
KSGF : now visible

Airfield :











YOU CAN JOIN US ON...

 
LOGIN :

Register | Disclaimer

   EN    FR    IT 

 









Legend :    VFR   Marginal VFR   IFR   Intensive IFR   Very Intensive IFR
Visi :
Ceiling :
>= 8 km
>= 3000ft
5 to 8 km
1000 to 3000 ft
1500m to 5 km
500 to 1000 ft
800 to 1500m
200 to 500 ft
< 800m
< 200 ft
Symbols :   Thunderstorms  Fog  Heavy snow  Heavy precipitations  Wind > 20 kt






- Airport Elevation : 1268 ft
- IATA code : SGF


KSGF - Springfield Branson National

CURRENT METAR :
  • 141252Z 19008KT 10SM CLR 18/09 A2989 RMK AO2 SLP111 T01780094

EXPIRED METARs :
  • 141152Z 19011KT 10SM CLR 17/08 A2988 RMK AO2 SLP109 T01670078 10183 20156 55001
  • 141052Z 18010KT 10SM CLR 17/07 A2987 RMK AO2 SLP103 T01670072
  • 140952Z 19009KT 10SM CLR 16/07 A2988 RMK AO2 SLP106 T01610067
  • 140852Z 18011KT 10SM CLR 16/06 A2988 RMK AO2 SLP109 T01610056 56018

TAF KSGF
Valid from the 14 at 12:00 until the 15 at 12:00 UTC


141120Z 1412/1512 18012KT P6SM SKC WS020/22045KT
FM141500 21014G21KT P6SM SKC
FM142200 22010KT P6SM SKC
FM150000 18008KT P6SM FEW250
KZKC FIR / North America



MET'MAP, your aeronautical weather chart ! - Copyright ORBIFLY December 2007 - Disclaimer

ORBIFLY MET'MAP TEAM :

Programming & Development : Alexandra Zaïnal
Original concept : Baudouin d'Aumeries
Technical & hardware support : Manuel Goepfert
Assistance : Marc-Olivier Méhu




SOURCES & CREDITS :

   NOAA       Earth
Advisory